메인 페이지
METAR-TAF:

METAR-TAF

공항 :

뉴올리언스, 루이지애나, 미국

위도: 30-02-58N, 경도: 090-01-44W, 고도: 2m

현재 날씨관측

예보는 53분 전, 13:53시(UTC)에 발표되었습니다.
북북동10kt
온도 27°C
습도 74%
기압 1017 hPa
시정: 16.1km
고도 4000ft 상공 구름 조금
고도 6000ft 상공 구름 보통
고도 8000ft 상공 구름 보통

METAR: KNEW 291353Z 02010KT 10SM FEW040 SCT060 SCT080 27/22 A3002 RMK AO2 SLP159 T02720217

시각: 09:46 (14:46 UTC)

예보

예보는 3 시간 26분 전, 11:20시(UTC)에 발표되었습니다.
예보 대상 시간: 29일 12시부터 30일 12시까지 (UTC)
kt
시정: 10km
고도 2000ft 상공 구름 보통
고도 15000ft 상공 구름 많음
시계 내 소나기
29일 1330시부터 (UTC)
여러 방향의 바람 6kt
시정: 10km
고도 2500ft 상공 구름 보통, 적란운.
고도 9000ft 상공 구름 많음
시계 내 뇌우
29일 2200시부터 (UTC)
북북동6kt
시정: 10km
고도 10000ft 상공 구름 보통, 적란운.
시계 내 뇌우
30일 0000시부터 (UTC)
북북동5kt
시정: 10km
고도 25000ft 상공 구름 조금

TAF: KNEW 291120Z 2912/3012 00000KT P6SM VCSH SCT020 BKN150 FM291330 VRB06KT P6SM VCTS SCT025CB BKN090 FM292200 02006KT P6SM VCTS SCT100CB FM300000 02005KT P6SM FEW250

4,000개 이상의 공항 관측 자료 및 예보 (METAR 및 TAF 보고).

지도상에서 검색 가능한 기상관측소가 노란 점과 빨간 점으로 표시되어 있습니다.

기상관측소 명을 보려면 표시 위로 마우스를 이동하세요.

날씨 관측과 예보를 보려면 클릭하세요.

지도 변경 : 확대하려면 엑스 표시가 있는 녹색 버튼, 축소하려면 빼기 표시가 있는 녹색 버튼, 다음 페이지의 지도를 보려면 녹색 화살표를 클릭하세요.


METAR-TAF: